Time;durP1;ratioP1;P1;durP2;ratioP2;P2;SDS_P1;SDS_P2;PMS_P1;PMS_P2;Temp;Humidity;BMP_temperature;BMP_pressure;BME280_temperature;BME280_humidity;BME280_pressure;Samples;Min_cycle;Max_cycle;Signal;HPM_P1;HPM_P2
2022/09/02 00:01:53;;;;;;;;;;;19.70;60.30;;;;;;5061434;28;20630;-66
2022/09/02 00:04:21;;;;;;;;;;;19.70;60.20;;;;;;5065441;28;20514;-66
2022/09/02 00:06:48;;;;;;;;;;;19.70;60.20;;;;;;5065275;28;19958;-66
2022/09/02 00:09:14;;;;;;;;;;;19.70;60.30;;;;;;5065078;28;19919;-66
2022/09/02 00:11:41;;;;;;;;;;;19.60;60.20;;;;;;5065635;28;19912;-66
2022/09/02 00:14:09;;;;;;;;;;;19.60;60.30;;;;;;5065762;28;19965;-66
2022/09/02 00:16:35;;;;;;;;;;;19.60;60.50;;;;;;5064997;28;19924;-66
2022/09/02 00:19:01;;;;;;;;;;;19.60;60.40;;;;;;5064948;28;19913;-66
2022/09/02 00:21:27;;;;;;;;;;;19.60;60.40;;;;;;5064788;28;19916;-66
2022/09/02 00:23:52;;;;;;;;;;;19.50;60.30;;;;;;5065112;28;19925;-66
2022/09/02 00:26:18;;;;;;;;;;;19.50;60.30;;;;;;5065061;28;19912;-66
2022/09/02 00:28:45;;;;;;;;;;;19.50;60.40;;;;;;5065676;28;19951;-66
2022/09/02 00:31:11;;;;;;;;;;;19.50;60.40;;;;;;5064705;28;20281;-66
2022/09/02 00:33:37;;;;;;;;;;;19.50;60.50;;;;;;5065768;28;19959;-66
2022/09/02 00:36:03;;;;;;;;;;;19.40;60.40;;;;;;5066050;28;20588;-66
2022/09/02 00:38:32;;;;;;;;;;;19.40;60.40;;;;;;5065462;28;20546;-66
2022/09/02 00:40:57;;;;;;;;;;;19.40;60.40;;;;;;5065581;28;20525;-66
2022/09/02 00:43:37;;;;;;;;;;;19.40;60.40;;;;;;5064848;28;19967;-66
2022/09/02 00:46:03;;;;;;;;;;;19.40;60.50;;;;;;5065258;28;19919;-66
2022/09/02 00:48:29;;;;;;;;;;;19.30;60.50;;;;;;5065163;28;19917;-66
2022/09/02 00:50:54;;;;;;;;;;;19.30;60.50;;;;;;5064887;28;19916;-66
2022/09/02 00:53:20;;;;;;;;;;;19.30;60.50;;;;;;5064338;28;19970;-66
2022/09/02 00:55:47;;;;;;;;;;;19.30;60.70;;;;;;5064959;28;20243;-66
2022/09/02 00:58:15;;;;;;;;;;;19.20;60.60;;;;;;5065300;28;20034;-66
2022/09/02 01:00:43;;;;;;;;;;;19.30;60.70;;;;;;5064390;28;19947;-66
2022/09/02 01:03:10;;;;;;;;;;;19.20;60.70;;;;;;5062930;28;19962;-66
2022/09/02 01:05:39;;;;;;;;;;;19.20;60.70;;;;;;5068011;28;19936;-66
2022/09/02 01:08:06;;;;;;;;;;;19.20;60.70;;;;;;5068718;28;19912;-66
2022/09/02 01:10:33;;;;;;;;;;;19.20;60.80;;;;;;5068320;28;20015;-66
2022/09/02 01:13:07;;;;;;;;;;;19.20;60.80;;;;;;5067533;28;19916;-66
2022/09/02 01:15:35;;;;;;;;;;;19.10;60.80;;;;;;5069241;28;20019;-66
2022/09/02 01:18:01;;;;;;;;;;;19.10;60.80;;;;;;5068846;28;20655;-66
2022/09/02 01:20:26;;;;;;;;;;;19.10;60.80;;;;;;5068274;28;19912;-66
2022/09/02 01:22:53;;;;;;;;;;;19.10;60.90;;;;;;5068403;28;19913;-66
2022/09/02 01:25:21;;;;;;;;;;;19.10;60.80;;;;;;5067747;28;19954;-66
2022/09/02 01:27:47;;;;;;;;;;;19.00;60.90;;;;;;5067630;28;19916;-66
2022/09/02 01:30:14;;;;;;;;;;;19.00;60.90;;;;;;5050226;28;19966;-66
2022/09/02 01:32:40;;;;;;;;;;;19.00;60.90;;;;;;5067581;28;19912;-66
2022/09/02 01:35:06;;;;;;;;;;;19.00;61.00;;;;;;5067694;28;19915;-66
2022/09/02 01:37:32;;;;;;;;;;;19.00;61.70;;;;;;5065943;28;19919;-66
2022/09/02 01:39:59;;;;;;;;;;;19.00;61.10;;;;;;5067360;28;19916;-66
2022/09/02 01:42:24;;;;;;;;;;;18.90;61.10;;;;;;5066291;28;19916;-66
2022/09/02 01:44:50;;;;;;;;;;;18.90;61.10;;;;;;5067056;28;19916;-66
2022/09/02 01:47:17;;;;;;;;;;;18.90;61.10;;;;;;5067800;28;19908;-66
2022/09/02 01:49:43;;;;;;;;;;;18.90;61.90;;;;;;5067050;28;19982;-66
2022/09/02 01:52:09;;;;;;;;;;;18.90;61.20;;;;;;5067619;28;20369;-66
2022/09/02 01:54:34;;;;;;;;;;;18.80;61.20;;;;;;5068036;28;19942;-66
2022/09/02 01:57:00;;;;;;;;;;;18.80;61.30;;;;;;5068231;28;20284;-66
2022/09/02 01:59:25;;;;;;;;;;;18.80;61.30;;;;;;5067144;28;19908;-66
2022/09/02 02:01:51;;;;;;;;;;;18.80;61.30;;;;;;5051436;28;19916;-66
2022/09/02 02:04:16;;;;;;;;;;;18.80;61.40;;;;;;5066897;28;19920;-66
2022/09/02 02:06:43;;;;;;;;;;;18.70;61.40;;;;;;5066707;28;20015;-66
2022/09/02 02:09:09;;;;;;;;;;;18.70;61.60;;;;;;5067168;28;20006;-66
2022/09/02 02:11:35;;;;;;;;;;;18.70;61.40;;;;;;5066881;28;19913;-66
2022/09/02 02:14:00;;;;;;;;;;;18.70;61.50;;;;;;5066921;28;19924;-66
2022/09/02 02:16:26;;;;;;;;;;;18.70;61.50;;;;;;5065746;28;20568;-66
2022/09/02 02:18:52;;;;;;;;;;;18.70;61.50;;;;;;5048739;28;19920;-66
2022/09/02 02:21:17;;;;;;;;;;;18.70;61.60;;;;;;5067007;28;20007;-66
2022/09/02 02:23:42;;;;;;;;;;;18.60;61.50;;;;;;5067525;28;19913;-67
2022/09/02 02:26:08;;;;;;;;;;;18.60;61.60;;;;;;5049114;28;19919;-66
2022/09/02 02:28:34;;;;;;;;;;;18.60;61.60;;;;;;5049195;28;19919;-66
2022/09/02 02:30:59;;;;;;;;;;;18.60;61.70;;;;;;5066281;28;20409;-66
2022/09/02 02:33:27;;;;;;;;;;;18.60;61.70;;;;;;5063561;28;19916;-66
2022/09/02 02:35:53;;;;;;;;;;;18.50;61.70;;;;;;5067322;28;19919;-66
2022/09/02 02:38:19;;;;;;;;;;;18.50;61.60;;;;;;5067531;28;19916;-66
2022/09/02 02:40:44;;;;;;;;;;;18.50;61.70;;;;;;5066889;28;20025;-66
2022/09/02 02:43:10;;;;;;;;;;;18.50;61.60;;;;;;5066256;28;19921;-66
2022/09/02 02:45:35;;;;;;;;;;;18.50;61.70;;;;;;5066517;28;19919;-66
2022/09/02 02:48:01;;;;;;;;;;;18.50;61.70;;;;;;5066230;28;19912;-66
2022/09/02 02:50:26;;;;;;;;;;;18.50;61.70;;;;;;5066089;28;19970;-66
2022/09/02 02:52:53;;;;;;;;;;;18.40;61.70;;;;;;5066356;28;19908;-66
2022/09/02 02:55:19;;;;;;;;;;;18.40;61.70;;;;;;5066589;28;19959;-66
2022/09/02 02:57:45;;;;;;;;;;;18.40;61.80;;;;;;5066855;28;20013;-66
2022/09/02 03:00:10;;;;;;;;;;;18.40;61.90;;;;;;5048650;28;20636;-66
2022/09/02 03:02:36;;;;;;;;;;;18.40;61.90;;;;;;5063311;28;19908;-66
2022/09/02 03:05:03;;;;;;;;;;;18.30;61.80;;;;;;5066564;28;19917;-66
2022/09/02 03:07:29;;;;;;;;;;;18.30;61.80;;;;;;5066452;28;20698;-66
2022/09/02 03:09:54;;;;;;;;;;;18.30;61.90;;;;;;5062476;28;19912;-66
2022/09/02 03:12:20;;;;;;;;;;;18.30;61.90;;;;;;5066117;28;19923;-66
2022/09/02 03:14:45;;;;;;;;;;;18.30;61.90;;;;;;5066301;28;19948;-66
2022/09/02 03:17:11;;;;;;;;;;;18.30;61.90;;;;;;5065756;28;19916;-66
2022/09/02 03:19:36;;;;;;;;;;;18.20;61.90;;;;;;5066011;28;20576;-66
2022/09/02 03:22:03;;;;;;;;;;;18.30;62.00;;;;;;5066216;28;20408;-66
2022/09/02 03:24:28;;;;;;;;;;;18.20;61.90;;;;;;5066875;28;19909;-66
2022/09/02 03:26:54;;;;;;;;;;;18.20;61.90;;;;;;5066537;28;19912;-66
2022/09/02 03:29:19;;;;;;;;;;;18.20;62.00;;;;;;5065831;28;20675;-66
2022/09/02 03:31:45;;;;;;;;;;;18.20;62.00;;;;;;5062076;28;19958;-66
2022/09/02 03:34:11;;;;;;;;;;;18.20;62.00;;;;;;5065854;28;20246;-66
2022/09/02 03:36:37;;;;;;;;;;;18.20;62.00;;;;;;5048448;28;20029;-66
2022/09/02 03:39:04;;;;;;;;;;;18.20;62.00;;;;;;5065641;28;19919;-66
2022/09/02 03:41:29;;;;;;;;;;;18.20;62.00;;;;;;5065668;28;19919;-66
2022/09/02 03:43:55;;;;;;;;;;;18.10;62.00;;;;;;5065657;28;19924;-66
2022/09/02 03:46:20;;;;;;;;;;;18.10;62.00;;;;;;5065830;28;19958;-66
2022/09/02 03:48:50;;;;;;;;;;;18.10;61.90;;;;;;5065711;28;21553;-66
2022/09/02 03:51:17;;;;;;;;;;;18.10;61.90;;;;;;5065207;28;20058;-66
2022/09/02 03:53:42;;;;;;;;;;;18.10;61.90;;;;;;5065121;28;19913;-66
2022/09/02 03:56:10;;;;;;;;;;;18.10;61.90;;;;;;5065715;28;19922;-66
2022/09/02 03:58:36;;;;;;;;;;;18.00;61.90;;;;;;5065460;28;19920;-66
2022/09/02 04:01:02;;;;;;;;;;;18.00;61.90;;;;;;5064717;28;19916;-66
2022/09/02 04:03:28;;;;;;;;;;;18.10;62.00;;;;;;5064268;28;20283;-66
2022/09/02 04:05:53;;;;;;;;;;;18.00;61.90;;;;;;5066270;28;19912;-66
2022/09/02 04:08:19;;;;;;;;;;;18.00;61.80;;;;;;5065181;28;19913;-66
2022/09/02 04:10:44;;;;;;;;;;;18.00;61.90;;;;;;5064981;28;19924;-66
2022/09/02 04:13:10;;;;;;;;;;;18.00;61.90;;;;;;5065457;28;19920;-66
2022/09/02 04:15:41;;;;;;;;;;;18.00;61.90;;;;;;5064983;28;19923;-66
2022/09/02 04:21:10;;;;;;;;;;;18.00;61.90;;;;;;5064718;28;20693;-66
2022/09/02 04:23:36;;;;;;;;;;;18.00;61.80;;;;;;5064871;28;19916;-66
2022/09/02 04:26:05;;;;;;;;;;;18.00;61.80;;;;;;5064670;28;19923;-67
2022/09/02 04:28:31;;;;;;;;;;;17.90;61.80;;;;;;5046023;28;19919;-69
2022/09/02 04:30:56;;;;;;;;;;;17.90;61.80;;;;;;5065047;28;19916;-66
2022/09/02 04:33:22;;;;;;;;;;;17.90;61.80;;;;;;5061436;28;19912;-66
2022/09/02 04:35:51;;;;;;;;;;;17.90;61.80;;;;;;5065161;28;19919;-66
2022/09/02 04:38:16;;;;;;;;;;;17.90;61.80;;;;;;5065237;28;20282;-66
2022/09/02 04:40:45;;;;;;;;;;;17.90;61.80;;;;;;5067176;28;19920;-66
2022/09/02 04:43:11;;;;;;;;;;;17.90;61.80;;;;;;5068604;28;19963;-66
2022/09/02 04:45:40;;;;;;;;;;;17.90;61.80;;;;;;5069355;28;19951;-66
2022/09/02 04:48:06;;;;;;;;;;;17.90;61.90;;;;;;5068115;28;19919;-66
2022/09/02 04:50:32;;;;;;;;;;;17.90;61.90;;;;;;5068551;28;19912;-66
2022/09/02 04:52:58;;;;;;;;;;;17.90;61.90;;;;;;5068723;28;19920;-66
2022/09/02 04:55:24;;;;;;;;;;;17.80;61.90;;;;;;5068619;28;20022;-66
2022/09/02 04:57:50;;;;;;;;;;;17.80;61.90;;;;;;5068537;28;19991;-66
2022/09/02 05:00:17;;;;;;;;;;;17.80;61.90;;;;;;5068922;28;19913;-66
2022/09/02 05:02:43;;;;;;;;;;;17.80;61.90;;;;;;5062741;28;19912;-66
2022/09/02 05:05:08;;;;;;;;;;;17.80;62.00;;;;;;5068600;28;20269;-66
2022/09/02 05:07:35;;;;;;;;;;;17.80;62.00;;;;;;5068561;28;19962;-66
2022/09/02 05:10:01;;;;;;;;;;;17.80;62.00;;;;;;5068460;28;20273;-66
2022/09/02 05:12:27;;;;;;;;;;;17.80;61.90;;;;;;5068000;28;19924;-66
2022/09/02 05:14:54;;;;;;;;;;;17.80;62.00;;;;;;5068406;28;19912;-66
2022/09/02 05:17:20;;;;;;;;;;;17.80;62.10;;;;;;5068447;28;19921;-66
2022/09/02 05:19:45;;;;;;;;;;;17.80;62.00;;;;;;5068385;28;19996;-65
2022/09/02 05:22:11;;;;;;;;;;;17.80;62.10;;;;;;5067271;28;19912;-66
2022/09/02 05:24:36;;;;;;;;;;;17.80;62.20;;;;;;5068148;28;19982;-66
2022/09/02 05:27:02;;;;;;;;;;;17.80;62.10;;;;;;5050377;28;19919;-66
2022/09/02 05:29:27;;;;;;;;;;;17.80;62.20;;;;;;5068668;28;20679;-66
2022/09/02 05:31:53;;;;;;;;;;;17.80;62.20;;;;;;5064929;28;19912;-66
2022/09/02 05:34:18;;;;;;;;;;;17.80;62.10;;;;;;5069164;28;19956;-66
2022/09/02 05:36:44;;;;;;;;;;;17.80;62.10;;;;;;5068788;28;20011;-66
2022/09/02 05:39:10;;;;;;;;;;;17.80;62.10;;;;;;5067167;28;20019;-66
2022/09/02 05:41:35;;;;;;;;;;;17.80;62.20;;;;;;5066942;28;19913;-66
2022/09/02 05:44:01;;;;;;;;;;;17.80;62.20;;;;;;5068025;28;19917;-66
2022/09/02 05:46:27;;;;;;;;;;;17.80;62.30;;;;;;5068322;28;19975;-66
2022/09/02 05:49:06;;;;;;;;;;;17.80;62.30;;;;;;5068328;28;20526;-66
2022/09/02 05:51:42;;;;;;;;;;;17.80;63.00;;;;;;5066841;28;19991;-67
2022/09/02 05:54:17;;;;;;;;;;;17.80;62.40;;;;;;5067641;28;20034;-66
2022/09/02 05:56:44;;;;;;;;;;;17.80;62.50;;;;;;5067937;28;19924;-66
2022/09/02 05:59:10;;;;;;;;;;;17.80;62.50;;;;;;5049699;28;19947;-66
2022/09/02 06:01:36;;;;;;;;;;;17.80;62.50;;;;;;5064715;28;19952;-66
2022/09/02 06:04:02;;;;;;;;;;;17.80;62.50;;;;;;5068030;28;19919;-66
2022/09/02 06:06:29;;;;;;;;;;;17.80;62.50;;;;;;5067701;28;19916;-66
2022/09/02 06:08:54;;;;;;;;;;;17.80;62.50;;;;;;5067498;28;19913;-66
2022/09/02 06:11:21;;;;;;;;;;;17.80;62.60;;;;;;5067281;28;20439;-66
2022/09/02 06:13:47;;;;;;;;;;;17.90;62.60;;;;;;5066291;28;20037;-66
2022/09/02 06:16:14;;;;;;;;;;;17.90;62.60;;;;;;5048995;28;19917;-66
2022/09/02 06:18:40;;;;;;;;;;;17.80;62.70;;;;;;5048172;28;19923;-66
2022/09/02 06:21:05;;;;;;;;;;;17.80;62.70;;;;;;5066308;28;19912;-66
2022/09/02 06:23:33;;;;;;;;;;;17.90;62.70;;;;;;5067236;28;20657;-66
2022/09/02 06:25:58;;;;;;;;;;;17.80;62.80;;;;;;5067523;28;20514;-66
2022/09/02 06:28:24;;;;;;;;;;;17.90;62.70;;;;;;5068159;28;19920;-66
2022/09/02 06:30:49;;;;;;;;;;;17.90;62.80;;;;;;5067362;28;20277;-66
2022/09/02 06:33:15;;;;;;;;;;;17.90;62.70;;;;;;5063394;28;19912;-65
2022/09/02 06:35:42;;;;;;;;;;;17.90;62.90;;;;;;5066240;28;20432;-65
2022/09/02 06:38:09;;;;;;;;;;;17.90;62.80;;;;;;5066852;28;20346;-66
2022/09/02 06:40:35;;;;;;;;;;;17.90;62.70;;;;;;5066648;28;20445;-66
2022/09/02 06:43:00;;;;;;;;;;;17.90;62.80;;;;;;5048487;28;20050;-65
2022/09/02 06:45:26;;;;;;;;;;;17.90;62.90;;;;;;5066538;28;19912;-65
2022/09/02 06:47:52;;;;;;;;;;;17.90;62.90;;;;;;5066724;28;19912;-66
2022/09/02 06:50:18;;;;;;;;;;;17.90;62.90;;;;;;5066230;28;19920;-66
2022/09/02 06:52:43;;;;;;;;;;;18.00;62.90;;;;;;5066371;28;19909;-66
2022/09/02 06:55:09;;;;;;;;;;;18.00;62.90;;;;;;5065869;28;19913;-66
2022/09/02 06:57:35;;;;;;;;;;;18.00;62.90;;;;;;5066621;28;19916;-66
2022/09/02 07:00:04;;;;;;;;;;;18.00;62.80;;;;;;5066509;28;19920;-66
2022/09/02 07:02:30;;;;;;;;;;;18.00;62.80;;;;;;5049201;28;20330;-66
2022/09/02 07:05:14;;;;;;;;;;;18.10;62.80;;;;;;5065958;28;19955;-66
2022/09/02 07:07:40;;;;;;;;;;;18.10;62.80;;;;;;5066013;28;19916;-65
2022/09/02 07:10:08;;;;;;;;;;;18.10;62.80;;;;;;5066163;28;19974;-66
2022/09/02 07:12:34;;;;;;;;;;;18.10;62.80;;;;;;5063117;28;19923;-66
2022/09/02 07:14:59;;;;;;;;;;;18.20;62.80;;;;;;5066000;28;19912;-66
2022/09/02 07:17:25;;;;;;;;;;;18.20;62.70;;;;;;5066054;28;19939;-66
2022/09/02 07:19:51;;;;;;;;;;;18.30;62.70;;;;;;5066081;28;20375;-66
2022/09/02 07:22:16;;;;;;;;;;;18.30;62.70;;;;;;5065854;28;19912;-66
2022/09/02 07:24:42;;;;;;;;;;;18.30;62.70;;;;;;5066005;28;19912;-66
2022/09/02 07:27:07;;;;;;;;;;;18.40;62.60;;;;;;5048974;28;19912;-66
2022/09/02 07:29:34;;;;;;;;;;;18.40;62.60;;;;;;5066591;28;19932;-66
2022/09/02 07:32:00;;;;;;;;;;;18.50;62.50;;;;;;5062024;28;19909;-66
2022/09/02 07:34:26;;;;;;;;;;;18.60;62.60;;;;;;5065884;28;19919;-66
2022/09/02 07:36:52;;;;;;;;;;;18.60;62.50;;;;;;5066489;28;19916;-66
2022/09/02 07:39:18;;;;;;;;;;;18.60;62.50;;;;;;5064644;28;20319;-66
2022/09/02 07:41:45;;;;;;;;;;;18.60;62.40;;;;;;5060707;28;20372;-66
2022/09/02 07:44:11;;;;;;;;;;;18.60;62.50;;;;;;5048854;28;19921;-66
2022/09/02 07:46:37;;;;;;;;;;;18.70;62.50;;;;;;5065747;28;19931;-66
2022/09/02 07:49:05;;;;;;;;;;;18.70;62.50;;;;;;5064860;28;19912;-66
2022/09/02 07:51:32;;;;;;;;;;;18.70;62.50;;;;;;5065541;28;19913;-66
2022/09/02 07:53:57;;;;;;;;;;;18.80;62.60;;;;;;5065465;28;19920;-66
2022/09/02 07:56:23;;;;;;;;;;;18.90;62.60;;;;;;5066074;28;19912;-66
2022/09/02 07:58:49;;;;;;;;;;;18.80;62.50;;;;;;5066340;28;19913;-66
2022/09/02 08:01:14;;;;;;;;;;;18.90;62.50;;;;;;5063812;28;19912;-66
2022/09/02 08:03:41;;;;;;;;;;;18.90;62.50;;;;;;5065641;28;19913;-66
2022/09/02 08:06:07;;;;;;;;;;;19.00;62.40;;;;;;5065481;28;19971;-66
2022/09/02 08:08:33;;;;;;;;;;;19.00;62.50;;;;;;5065769;28;20646;-66
2022/09/02 08:10:59;;;;;;;;;;;19.10;62.30;;;;;;5065278;28;20533;-66
2022/09/02 08:13:25;;;;;;;;;;;19.10;62.20;;;;;;5065536;28;19939;-66
2022/09/02 08:15:50;;;;;;;;;;;19.20;62.20;;;;;;5069589;28;20457;-66
2022/09/02 08:18:16;;;;;;;;;;;19.30;62.10;;;;;;5070026;28;19912;-66
2022/09/02 08:20:42;;;;;;;;;;;19.30;62.10;;;;;;5069607;28;19916;-66
2022/09/02 08:23:08;;;;;;;;;;;19.40;62.10;;;;;;5069380;28;19913;-66
2022/09/02 08:25:34;;;;;;;;;;;19.40;62.10;;;;;;5069334;28;19923;-66
2022/09/02 08:27:59;;;;;;;;;;;19.40;62.10;;;;;;5069185;28;20438;-66
2022/09/02 08:30:25;;;;;;;;;;;19.50;62.20;;;;;;5068055;28;19920;-66
2022/09/02 08:32:51;;;;;;;;;;;19.50;62.10;;;;;;5065528;28;20057;-66
2022/09/02 08:35:16;;;;;;;;;;;19.60;62.20;;;;;;5069160;28;19921;-66
2022/09/02 08:37:42;;;;;;;;;;;19.60;62.20;;;;;;5069907;28;19924;-66
2022/09/02 08:40:12;;;;;;;;;;;19.60;62.80;;;;;;5069633;28;19912;-66
2022/09/02 08:42:44;;;;;;;;;;;19.70;62.10;;;;;;5068880;28;19962;-66
2022/09/02 08:45:29;;;;;;;;;;;19.70;62.00;;;;;;5068793;28;19966;-66
2022/09/02 08:48:01;;;;;;;;;;;19.80;62.00;;;;;;5068601;28;20003;-66
2022/09/02 08:50:27;;;;;;;;;;;19.80;61.90;;;;;;5068630;28;19916;-66
2022/09/02 08:53:02;;;;;;;;;;;19.90;62.60;;;;;;5061874;28;19918;-66
2022/09/02 08:55:50;;;;;;;;;;;19.90;61.80;;;;;;5068699;28;20015;-66
2022/09/02 08:58:17;;;;;;;;;;;20.00;61.80;;;;;;5068760;28;19912;-66
2022/09/02 09:00:46;;;;;;;;;;;20.00;61.80;;;;;;5068956;28;19923;-66
2022/09/02 09:03:32;;;;;;;;;;;20.10;61.80;;;;;;5067477;28;19920;-66
2022/09/02 09:05:57;;;;;;;;;;;20.20;61.80;;;;;;5067221;28;19923;-66
2022/09/02 09:08:28;;;;;;;;;;;20.20;61.70;;;;;;5068663;28;19912;-66
2022/09/02 09:11:27;;;;;;;;;;;20.30;61.70;;;;;;5050114;28;19926;-66
2022/09/02 09:14:06;;;;;;;;;;;20.30;61.70;;;;;;5023749;28;19912;-67
2022/09/02 09:16:38;;;;;;;;;;;20.40;61.60;;;;;;5068513;28;20376;-66
2022/09/02 09:19:14;;;;;;;;;;;20.50;61.50;;;;;;5068861;28;19912;-66
2022/09/02 09:21:40;;;;;;;;;;;20.50;61.40;;;;;;5068099;28;19999;-67
2022/09/02 09:24:17;;;;;;;;;;;20.60;61.40;;;;;;5061662;28;19913;-66
2022/09/02 09:26:46;;;;;;;;;;;20.60;61.30;;;;;;5067521;28;19919;-67
2022/09/02 09:29:11;;;;;;;;;;;20.70;61.20;;;;;;5068239;28;19944;-67
2022/09/02 09:31:38;;;;;;;;;;;20.70;61.20;;;;;;5065183;28;19948;-67
2022/09/02 09:34:04;;;;;;;;;;;20.80;61.10;;;;;;5068367;28;19916;-67
2022/09/02 09:36:39;;;;;;;;;;;20.80;61.00;;;;;;5067781;28;20380;-66
2022/09/02 09:39:19;;;;;;;;;;;20.80;60.90;;;;;;5066759;28;19919;-67
2022/09/02 09:41:46;;;;;;;;;;;20.90;61.00;;;;;;5067369;28;20061;-67
2022/09/02 09:44:31;;;;;;;;;;;20.90;61.00;;;;;;5049769;28;20445;-67
2022/09/02 09:47:01;;;;;;;;;;;20.90;60.90;;;;;;5067604;28;20047;-67
2022/09/02 09:49:26;;;;;;;;;;;21.00;60.80;;;;;;5067009;28;19913;-67
2022/09/02 09:51:55;;;;;;;;;;;21.00;60.90;;;;;;5067338;28;19919;-67
2022/09/02 09:54:20;;;;;;;;;;;21.00;61.50;;;;;;5067829;28;19999;-66
2022/09/02 09:56:46;;;;;;;;;;;21.10;60.90;;;;;;5049222;28;20019;-67
2022/09/02 09:59:31;;;;;;;;;;;21.10;61.00;;;;;;5067851;28;19912;-66
2022/09/02 10:01:57;;;;;;;;;;;21.10;61.00;;;;;;5066810;28;19919;-67
2022/09/02 10:04:27;;;;;;;;;;;21.20;60.90;;;;;;5067072;28;20265;-67
2022/09/02 10:06:52;;;;;;;;;;;21.30;60.70;;;;;;5067229;28;20003;-67
2022/09/02 10:09:18;;;;;;;;;;;21.30;60.80;;;;;;5067613;28;20428;-67
2022/09/02 10:11:55;;;;;;;;;;;21.30;60.60;;;;;;5067902;28;19913;-67
2022/09/02 10:14:20;;;;;;;;;;;21.40;60.50;;;;;;5067916;28;19912;-67
2022/09/02 10:17:02;;;;;;;;;;;21.40;60.60;;;;;;5067252;28;19924;-67
2022/09/02 10:19:43;;;;;;;;;;;21.40;60.70;;;;;;5067466;28;19920;-67
2022/09/02 10:22:17;;;;;;;;;;;21.50;60.70;;;;;;5066158;28;19920;-67
2022/09/02 10:25:06;;;;;;;;;;;21.60;60.60;;;;;;5067175;28;19939;-67
2022/09/02 10:27:37;;;;;;;;;;;21.70;60.40;;;;;;5049104;28;19938;-67
2022/09/02 10:30:10;;;;;;;;;;;21.80;60.10;;;;;;5067953;28;19913;-67
2022/09/02 10:32:35;;;;;;;;;;;21.90;60.00;;;;;;5052593;28;19951;-67
2022/09/02 10:35:15;;;;;;;;;;;21.90;60.10;;;;;;5067408;28;20358;-67
2022/09/02 10:38:10;;;;;;;;;;;22.00;60.00;;;;;;5064493;28;19994;-67
2022/09/02 10:40:48;;;;;;;;;;;21.90;60.60;;;;;;5047278;28;19916;-67
2022/09/02 10:43:24;;;;;;;;;;;21.90;60.10;;;;;;5065750;28;20392;-67
2022/09/02 10:45:53;;;;;;;;;;;21.90;60.10;;;;;;5064804;28;19913;-67
2022/09/02 10:48:19;;;;;;;;;;;21.90;60.30;;;;;;5066193;28;20126;-67
2022/09/02 10:50:57;;;;;;;;;;;21.90;60.40;;;;;;5065053;28;20076;-67
2022/09/02 10:53:41;;;;;;;;;;;21.90;60.80;;;;;;5065113;28;19919;-67
2022/09/02 10:56:13;;;;;;;;;;;21.90;60.70;;;;;;5057333;28;19928;-67
2022/09/02 10:58:54;;;;;;;;;;;22.00;60.60;;;;;;5053025;28;19967;-67
2022/09/02 11:01:42;;;;;;;;;;;22.00;60.60;;;;;;5057425;28;20023;-67
2022/09/02 11:04:07;;;;;;;;;;;22.10;60.80;;;;;;5063776;28;20528;-67
2022/09/02 11:06:38;;;;;;;;;;;22.20;60.30;;;;;;5065130;28;20003;-67
2022/09/02 11:09:22;;;;;;;;;;;22.30;60.20;;;;;;5065648;28;19916;-67
2022/09/02 11:11:51;;;;;;;;;;;22.30;60.20;;;;;;5064908;28;19913;-67
2022/09/02 11:14:22;;;;;;;;;;;22.40;60.00;;;;;;5064973;28;19917;-67
2022/09/02 11:16:57;;;;;;;;;;;22.50;59.90;;;;;;5065649;28;19917;-67
2022/09/02 11:19:23;;;;;;;;;;;22.40;60.00;;;;;;5065303;28;19916;-67
2022/09/02 11:21:59;;;;;;;;;;;22.60;60.00;;;;;;5064787;28;20571;-67
2022/09/02 11:24:24;;;;;;;;;;;22.70;59.80;;;;;;5065651;28;20377;-67
2022/09/02 11:27:11;;;;;;;;;;;22.80;59.40;;;;;;5065856;28;19969;-67
2022/09/02 11:29:56;;;;;;;;;;;23.00;59.20;;;;;;5065359;28;19916;-67
2022/09/02 11:32:28;;;;;;;;;;;23.10;59.00;;;;;;5059900;28;19916;-67
2022/09/02 11:34:57;;;;;;;;;;;23.30;58.60;;;;;;5058533;28;19912;-67
2022/09/02 11:37:29;;;;;;;;;;;23.30;58.00;;;;;;5057322;28;19974;-67
2022/09/02 11:39:57;;;;;;;;;;;23.30;58.20;;;;;;5047342;28;19918;-68
2022/09/02 11:42:23;;;;;;;;;;;23.40;58.00;;;;;;5064587;28;19912;-68
2022/09/02 11:45:09;;;;;;;;;;;23.60;57.40;;;;;;5064922;28;19920;-67
2022/09/02 11:47:48;;;;;;;;;;;23.70;57.00;;;;;;5064417;28;20432;-68
2022/09/02 11:50:13;;;;;;;;;;;23.80;57.30;;;;;;5063940;28;20542;-67
2022/09/02 11:52:57;;;;;;;;;;;23.90;57.10;;;;;;5064272;28;19952;-67
2022/09/02 11:55:32;;;;;;;;;;;24.00;57.10;;;;;;5064928;28;20940;-68
2022/09/02 11:57:59;;;;;;;;;;;24.10;56.70;;;;;;5065100;28;20459;-67
2022/09/02 12:00:28;;;;;;;;;;;24.20;56.80;;;;;;5047381;28;19950;-68
2022/09/02 12:02:56;;;;;;;;;;;24.30;56.30;;;;;;5044625;28;19916;-68
2022/09/02 12:05:28;;;;;;;;;;;24.40;56.30;;;;;;5065724;28;20469;-68
2022/09/02 12:08:03;;;;;;;;;;;24.40;56.30;;;;;;5065274;28;19939;-68
2022/09/02 12:10:48;;;;;;;;;;;24.50;56.90;;;;;;5064809;28;20007;-68
2022/09/02 12:13:32;;;;;;;;;;;24.50;56.40;;;;;;5047223;28;20608;-68
2022/09/02 12:16:22;;;;;;;;;;;24.60;56.40;;;;;;5060279;28;20369;-68
2022/09/02 12:18:52;;;;;;;;;;;24.70;55.60;;;;;;5065536;28;20385;-68
2022/09/02 12:21:19;;;;;;;;;;;24.80;56.50;;;;;;5065166;28;19913;-69
2022/09/02 12:23:48;;;;;;;;;;;24.80;56.00;;;;;;5046878;28;19965;-68
2022/09/02 12:26:18;;;;;;;;;;;24.80;56.50;;;;;;5065918;28;19963;-68
2022/09/02 12:28:47;;;;;;;;;;;24.90;56.60;;;;;;5065860;28;19912;-68
2022/09/02 12:31:14;;;;;;;;;;;24.80;56.90;;;;;;5062912;28;19948;-68
2022/09/02 12:33:39;;;;;;;;;;;24.80;56.90;;;;;;5064556;28;19908;-68
2022/09/02 12:36:06;;;;;;;;;;;24.80;57.10;;;;;;5064686;28;19969;-68
2022/09/02 12:38:33;;;;;;;;;;;24.70;57.30;;;;;;5065836;28;19912;-68
2022/09/02 12:41:04;;;;;;;;;;;24.80;57.50;;;;;;5065200;28;19991;-68
2022/09/02 12:43:43;;;;;;;;;;;24.80;57.60;;;;;;5065115;28;19927;-68
2022/09/02 12:46:18;;;;;;;;;;;24.80;57.30;;;;;;5065340;28;19920;-68
2022/09/02 12:49:02;;;;;;;;;;;25.00;57.30;;;;;;5047017;28;19912;-68
2022/09/02 12:51:46;;;;;;;;;;;25.00;57.30;;;;;;5065214;28;19920;-68
2022/09/02 12:54:14;;;;;;;;;;;25.00;57.40;;;;;;5063622;28;19913;-68
2022/09/02 12:56:46;;;;;;;;;;;24.90;57.30;;;;;;5064126;28;19916;-68
2022/09/02 12:59:18;;;;;;;;;;;25.00;57.20;;;;;;5064562;28;19919;-68
2022/09/02 13:01:55;;;;;;;;;;;24.90;57.60;;;;;;5048725;28;19912;-68
2022/09/02 13:04:21;;;;;;;;;;;25.00;57.50;;;;;;5068576;28;19908;-68
2022/09/02 13:06:46;;;;;;;;;;;25.00;57.70;;;;;;5069079;28;20430;-68
2022/09/02 13:09:31;;;;;;;;;;;25.00;57.70;;;;;;5068819;28;19919;-68
2022/09/02 13:12:11;;;;;;;;;;;25.00;57.60;;;;;;5068181;28;19913;-68
2022/09/02 13:14:41;;;;;;;;;;;24.90;57.60;;;;;;5068707;28;19916;-68
2022/09/02 13:17:06;;;;;;;;;;;25.00;57.60;;;;;;5067947;28;19920;-68
2022/09/02 13:19:50;;;;;;;;;;;25.00;57.50;;;;;;5068547;28;19988;-68
2022/09/02 13:22:35;;;;;;;;;;;25.10;57.10;;;;;;5068239;28;19916;-68
2022/09/02 13:25:09;;;;;;;;;;;25.20;57.40;;;;;;5067803;28;20000;-68
2022/09/02 13:27:41;;;;;;;;;;;25.20;57.40;;;;;;5050441;28;19913;-68
2022/09/02 13:30:07;;;;;;;;;;;25.20;56.80;;;;;;5068675;28;19919;-68
2022/09/02 13:32:33;;;;;;;;;;;25.20;56.40;;;;;;5064482;28;19913;-68
2022/09/02 13:35:06;;;;;;;;;;;25.30;56.90;;;;;;5068339;28;20003;-68
2022/09/02 13:37:36;;;;;;;;;;;25.30;57.20;;;;;;5067879;28;19924;-68
2022/09/02 13:40:05;;;;;;;;;;;25.40;57.10;;;;;;5066244;28;20061;-68
2022/09/02 13:42:31;;;;;;;;;;;25.40;56.50;;;;;;5064297;28;19920;-68
2022/09/02 13:45:10;;;;;;;;;;;25.40;56.80;;;;;;5048027;28;19928;-68
2022/09/02 13:47:35;;;;;;;;;;;25.40;56.90;;;;;;5065192;28;20281;-68
2022/09/02 13:50:01;;;;;;;;;;;25.40;56.70;;;;;;5068074;28;20023;-68
2022/09/02 13:52:27;;;;;;;;;;;25.40;56.30;;;;;;5067356;28;20380;-68
2022/09/02 13:54:54;;;;;;;;;;;25.50;56.50;;;;;;5067741;28;19919;-68
2022/09/02 13:57:22;;;;;;;;;;;25.50;57.00;;;;;;5066950;28;20742;-68
2022/09/02 13:59:52;;;;;;;;;;;25.50;56.60;;;;;;5049606;28;19935;-68
2022/09/02 14:02:27;;;;;;;;;;;25.50;56.80;;;;;;5067131;28;19947;-68
2022/09/02 14:04:55;;;;;;;;;;;25.50;57.00;;;;;;5067444;28;19970;-68
2022/09/02 14:07:27;;;;;;;;;;;25.50;56.90;;;;;;5067359;28;19960;-68
2022/09/02 14:09:53;;;;;;;;;;;25.60;57.00;;;;;;5067443;28;19919;-68
2022/09/02 14:12:19;;;;;;;;;;;25.60;56.50;;;;;;5066965;28;19909;-68
2022/09/02 14:14:44;;;;;;;;;;;25.60;56.10;;;;;;5067109;28;19963;-68
2022/09/02 14:17:17;;;;;;;;;;;25.70;56.20;;;;;;5067441;28;19920;-68
2022/09/02 14:19:42;;;;;;;;;;;25.80;54.70;;;;;;5066653;28;19916;-68
2022/09/02 14:22:18;;;;;;;;;;;25.90;55.70;;;;;;5066870;28;19923;-68
2022/09/02 14:24:43;;;;;;;;;;;25.90;56.00;;;;;;5067019;28;19912;-68
2022/09/02 14:27:17;;;;;;;;;;;26.00;55.90;;;;;;5067112;28;19912;-68
2022/09/02 14:29:44;;;;;;;;;;;26.10;55.20;;;;;;5067202;28;19915;-68